AZU4144 SBKP-SBEG
Flight info
| Callsign | AZU4144 |
|---|---|
| Flight time | 3h 17m |
| Altitude | 34000 |
| Route | VUPOG UM417 PAMOT/N0446F360 UM417 UMGUP DCT IRUMO |
| Aircraft | E195/M-SDE3GILORVW/S |
Departure
| Time | 2026-05-05 11:30 |
|---|---|
| Airport | Viracopos International Airport (SBKP) |
Arrival
| Time | 2026-05-05 14:47 |
|---|---|
| Airport | Eduardo Gomes International Airport (SBEG) |
| Time | Latitude | Longitude | Altitude | Speed | Heading |
|---|---|---|---|---|---|
| 2026-05-05 11:03 | -23.00523 | -47.14901 | 2175 ft | 0 kts | 38° |
| 2026-05-05 11:20 | -23.00525 | -47.14903 | 2175 ft | 4 kts | 39° |
| 2026-05-05 11:20 | -23.00536 | -47.14913 | 2175 ft | 0 kts | 38° |
| 2026-05-05 11:20 | -23.00547 | -47.14920 | 2175 ft | 2 kts | 14° |
| 2026-05-05 11:20 | -23.00563 | -47.14921 | 2175 ft | 2 kts | 349° |
| 2026-05-05 11:21 | -23.00577 | -47.14915 | 2175 ft | 2 kts | 321° |
| 2026-05-05 11:21 | -23.00584 | -47.14908 | 2175 ft | 1 kts | 305° |
| 2026-05-05 11:21 | -23.00587 | -47.14903 | 2175 ft | 0 kts | 306° |
| 2026-05-05 11:24 | -23.00586 | -47.14904 | 2175 ft | 0 kts | 306° |
| 2026-05-05 11:24 | -23.00576 | -47.14919 | 2175 ft | 4 kts | 307° |
| 2026-05-05 11:24 | -23.00547 | -47.14960 | 2175 ft | 8 kts | 308° |
| 2026-05-05 11:24 | -23.00510 | -47.15010 | 2175 ft | 8 kts | 309° |
| 2026-05-05 11:25 | -23.00471 | -47.15062 | 2175 ft | 9 kts | 308° |
| 2026-05-05 11:25 | -23.00431 | -47.15118 | 2175 ft | 9 kts | 307° |
| 2026-05-05 11:25 | -23.00383 | -47.15168 | 2175 ft | 9 kts | 355° |
| 2026-05-05 11:25 | -23.00330 | -47.15126 | 2175 ft | 10 kts | 40° |
| 2026-05-05 11:26 | -23.00265 | -47.15073 | 2175 ft | 13 kts | 38° |
| 2026-05-05 11:26 | -23.00190 | -47.15010 | 2175 ft | 13 kts | 38° |
| 2026-05-05 11:26 | -23.00112 | -47.14944 | 2175 ft | 14 kts | 38° |
| 2026-05-05 11:26 | -23.00032 | -47.14878 | 2175 ft | 14 kts | 44° |
| 2026-05-05 11:27 | -22.99967 | -47.14799 | 2175 ft | 9 kts | 37° |
| 2026-05-05 11:27 | -22.99948 | -47.14782 | 2175 ft | 3 kts | 38° |
| 2026-05-05 11:27 | -22.99927 | -47.14765 | 2175 ft | 4 kts | 39° |
| 2026-05-05 11:27 | -22.99901 | -47.14736 | 2175 ft | 7 kts | 47° |
| 2026-05-05 11:28 | -22.99866 | -47.14690 | 2175 ft | 7 kts | 69° |
| 2026-05-05 11:28 | -22.99874 | -47.14661 | 2175 ft | 0 kts | 128° |
| 2026-05-05 11:28 | -22.99895 | -47.14633 | 2175 ft | 22 kts | 128° |
| 2026-05-05 11:29 | -23.00118 | -47.14321 | 2175 ft | 80 kts | 127° |
| 2026-05-05 11:29 | -23.00564 | -47.13697 | 2176 ft | 128 kts | 127° |
| 2026-05-05 11:29 | -23.01201 | -47.12804 | 2192 ft | 165 kts | 126° |
| 2026-05-05 11:29 | -23.01895 | -47.11820 | 2568 ft | 166 kts | 126° |
| 2026-05-05 11:30 | -23.02438 | -47.10652 | 2760 ft | 185 kts | 93° |
| 2026-05-05 11:30 | -23.02140 | -47.09276 | 3123 ft | 195 kts | 69° |
| 2026-05-05 11:30 | -23.01705 | -47.07854 | 3648 ft | 203 kts | 73° |
| 2026-05-05 11:30 | -23.01343 | -47.06304 | 4107 ft | 217 kts | 77° |
| 2026-05-05 11:31 | -23.01033 | -47.04675 | 4689 ft | 224 kts | 78° |
| 2026-05-05 11:31 | -23.00746 | -47.02972 | 5232 ft | 234 kts | 76° |
| 2026-05-05 11:31 | -22.99933 | -47.01445 | 5841 ft | 237 kts | 39° |
| 2026-05-05 11:31 | -22.98645 | -47.00356 | 6632 ft | 235 kts | 36° |
| 2026-05-05 11:32 | -22.97352 | -46.99295 | 7363 ft | 234 kts | 37° |
| 2026-05-05 11:32 | -22.96069 | -46.98243 | 7909 ft | 232 kts | 37° |
| 2026-05-05 11:32 | -22.94749 | -46.97163 | 7988 ft | 238 kts | 37° |
| 2026-05-05 11:32 | -22.93433 | -46.96086 | 8007 ft | 238 kts | 37° |
| 2026-05-05 11:33 | -22.92098 | -46.94995 | 8019 ft | 238 kts | 37° |
| 2026-05-05 11:33 | -22.90615 | -46.94198 | 8026 ft | 239 kts | 4° |
| 2026-05-05 11:33 | -22.88954 | -46.94568 | 8229 ft | 251 kts | 332° |
| 2026-05-05 11:33 | -22.87396 | -46.95479 | 8813 ft | 254 kts | 331° |
| 2026-05-05 11:34 | -22.85867 | -46.96398 | 9466 ft | 253 kts | 331° |
| 2026-05-05 11:34 | -22.84320 | -46.97340 | 10103 ft | 253 kts | 330° |
| 2026-05-05 11:34 | -22.82787 | -46.98279 | 10560 ft | 261 kts | 330° |
| 2026-05-05 11:34 | -22.81109 | -46.99311 | 10580 ft | 289 kts | 330° |
| 2026-05-05 11:35 | -22.79275 | -47.00440 | 10771 ft | 309 kts | 330° |
| 2026-05-05 11:35 | -22.77389 | -47.01601 | 11217 ft | 318 kts | 330° |
| 2026-05-05 11:35 | -22.75405 | -47.02746 | 11778 ft | 324 kts | 332° |
| 2026-05-05 11:35 | -22.73376 | -47.03860 | 12305 ft | 331 kts | 332° |
| 2026-05-05 11:36 | -22.71296 | -47.05002 | 12823 ft | 338 kts | 332° |
| 2026-05-05 11:36 | -22.69164 | -47.06173 | 13378 ft | 343 kts | 332° |
| 2026-05-05 11:36 | -22.67029 | -47.07344 | 13961 ft | 348 kts | 332° |
| 2026-05-05 11:36 | -22.64845 | -47.08543 | 14598 ft | 351 kts | 331° |
| 2026-05-05 11:37 | -22.62648 | -47.09748 | 15232 ft | 353 kts | 331° |
| 2026-05-05 11:37 | -22.60465 | -47.10945 | 15842 ft | 355 kts | 331° |
| 2026-05-05 11:37 | -22.58236 | -47.12167 | 16401 ft | 359 kts | 331° |
| 2026-05-05 11:37 | -22.55993 | -47.13396 | 16950 ft | 362 kts | 331° |
| 2026-05-05 11:38 | -22.53738 | -47.14632 | 17466 ft | 366 kts | 330° |
| 2026-05-05 11:38 | -22.51444 | -47.15888 | 18011 ft | 369 kts | 330° |
| 2026-05-05 11:38 | -22.49143 | -47.17147 | 18547 ft | 372 kts | 330° |
| 2026-05-05 11:38 | -22.46850 | -47.18402 | 19051 ft | 374 kts | 330° |
| 2026-05-05 11:39 | -22.44493 | -47.19691 | 19540 ft | 378 kts | 330° |
| 2026-05-05 11:39 | -22.42171 | -47.20961 | 20021 ft | 380 kts | 330° |
| 2026-05-05 11:39 | -22.39792 | -47.22261 | 20487 ft | 383 kts | 330° |
| 2026-05-05 11:39 | -22.37380 | -47.23579 | 20960 ft | 386 kts | 331° |
| 2026-05-05 11:40 | -22.34999 | -47.24880 | 21423 ft | 388 kts | 331° |
| 2026-05-05 11:40 | -22.32512 | -47.26237 | 21908 ft | 390 kts | 330° |
| 2026-05-05 11:40 | -22.30052 | -47.27580 | 22355 ft | 392 kts | 331° |
| 2026-05-05 11:40 | -22.27788 | -47.29183 | 22740 ft | 391 kts | 315° |
| 2026-05-05 11:41 | -22.25802 | -47.31179 | 23185 ft | 392 kts | 314° |
| 2026-05-05 11:41 | -22.23808 | -47.33205 | 23635 ft | 394 kts | 314° |
| 2026-05-05 11:41 | -22.21787 | -47.35262 | 24069 ft | 396 kts | 313° |
| 2026-05-05 11:41 | -22.19788 | -47.37297 | 24501 ft | 398 kts | 313° |
| 2026-05-05 11:42 | -22.17769 | -47.39351 | 24925 ft | 400 kts | 313° |
| 2026-05-05 11:42 | -22.15732 | -47.41423 | 25331 ft | 402 kts | 313° |
| 2026-05-05 11:42 | -22.13659 | -47.43530 | 25728 ft | 404 kts | 313° |
| 2026-05-05 11:42 | -22.11605 | -47.45617 | 26113 ft | 406 kts | 313° |
| 2026-05-05 11:43 | -22.09554 | -47.47700 | 26477 ft | 408 kts | 312° |
| 2026-05-05 11:43 | -22.07460 | -47.49827 | 26847 ft | 410 kts | 312° |
| 2026-05-05 11:43 | -22.05388 | -47.51929 | 27225 ft | 412 kts | 312° |
| 2026-05-05 11:43 | -22.03291 | -47.54057 | 27580 ft | 414 kts | 312° |
| 2026-05-05 11:44 | -22.01199 | -47.56178 | 27916 ft | 416 kts | 312° |
| 2026-05-05 11:44 | -21.99070 | -47.58336 | 28252 ft | 418 kts | 312° |
| 2026-05-05 11:44 | -21.96950 | -47.60484 | 28580 ft | 420 kts | 311° |
| 2026-05-05 11:44 | -21.94794 | -47.62668 | 28919 ft | 422 kts | 311° |
| 2026-05-05 11:45 | -21.92648 | -47.64841 | 29225 ft | 424 kts | 311° |
| 2026-05-05 11:45 | -21.90499 | -47.67014 | 29564 ft | 426 kts | 312° |
| 2026-05-05 11:45 | -21.88311 | -47.69228 | 29859 ft | 428 kts | 311° |
| 2026-05-05 11:45 | -21.86148 | -47.71415 | 30171 ft | 430 kts | 311° |
| 2026-05-05 11:46 | -21.83973 | -47.73612 | 30495 ft | 431 kts | 311° |
| 2026-05-05 11:46 | -21.81766 | -47.75842 | 30805 ft | 432 kts | 311° |
| 2026-05-05 11:46 | -21.79565 | -47.78064 | 31114 ft | 433 kts | 311° |
| 2026-05-05 11:46 | -21.77351 | -47.80299 | 31400 ft | 435 kts | 311° |
| 2026-05-05 11:47 | -21.75142 | -47.82526 | 31668 ft | 437 kts | 311° |
| 2026-05-05 11:47 | -21.72927 | -47.84760 | 31951 ft | 438 kts | 311° |
| 2026-05-05 11:47 | -21.70703 | -47.87001 | 32304 ft | 437 kts | 311° |
| 2026-05-05 11:47 | -21.68464 | -47.89256 | 32650 ft | 436 kts | 311° |
| 2026-05-05 11:48 | -21.64068 | -47.93682 | 33393 ft | 433 kts | 311° |
| 2026-05-05 11:48 | -21.61859 | -47.95904 | 33782 ft | 431 kts | 310° |
| 2026-05-05 11:48 | -21.59668 | -47.98107 | 34087 ft | 431 kts | 310° |
| 2026-05-05 11:49 | -21.57505 | -48.00282 | 34216 ft | 428 kts | 310° |
| 2026-05-05 11:49 | -21.55314 | -48.02484 | 34232 ft | 434 kts | 310° |
| 2026-05-05 11:49 | -21.50808 | -48.07010 | 34241 ft | 448 kts | 310° |
| 2026-05-05 11:50 | -21.46195 | -48.11637 | 34225 ft | 459 kts | 310° |
| 2026-05-05 11:50 | -21.41523 | -48.16319 | 34225 ft | 459 kts | 311° |
| 2026-05-05 11:51 | -21.36866 | -48.20982 | 34225 ft | 458 kts | 310° |
| 2026-05-05 11:51 | -21.32193 | -48.25657 | 34226 ft | 455 kts | 310° |
| 2026-05-05 11:52 | -21.27555 | -48.30294 | 34218 ft | 458 kts | 310° |
| 2026-05-05 11:52 | -21.22885 | -48.34957 | 34221 ft | 457 kts | 310° |
| 2026-05-05 11:53 | -21.18212 | -48.39619 | 34228 ft | 457 kts | 310° |
| 2026-05-05 11:53 | -21.13559 | -48.44257 | 34217 ft | 456 kts | 310° |
| 2026-05-05 11:54 | -21.08924 | -48.48874 | 34223 ft | 457 kts | 310° |
| 2026-05-05 11:54 | -21.04238 | -48.53536 | 34225 ft | 456 kts | 310° |
| 2026-05-05 11:55 | -20.99588 | -48.58159 | 34217 ft | 457 kts | 310° |
| 2026-05-05 11:55 | -20.94924 | -48.62791 | 34217 ft | 457 kts | 310° |
| 2026-05-05 11:56 | -20.90247 | -48.67433 | 34225 ft | 457 kts | 310° |
| 2026-05-05 11:56 | -20.85593 | -48.72047 | 34217 ft | 456 kts | 310° |
| 2026-05-05 11:57 | -20.80905 | -48.76691 | 34214 ft | 458 kts | 310° |
| 2026-05-05 11:57 | -20.76214 | -48.81334 | 34215 ft | 456 kts | 310° |
| 2026-05-05 11:58 | -20.71190 | -48.85583 | 34221 ft | 465 kts | 318° |
| 2026-05-05 11:58 | -20.65863 | -48.89574 | 34207 ft | 466 kts | 318° |
| 2026-05-05 11:59 | -20.60577 | -48.93534 | 34206 ft | 467 kts | 318° |
| 2026-05-05 11:59 | -20.55242 | -48.97528 | 34201 ft | 465 kts | 318° |
| 2026-05-05 12:00 | -20.49931 | -49.01501 | 34191 ft | 468 kts | 318° |
| 2026-05-05 12:00 | -20.44607 | -49.05479 | 34194 ft | 468 kts | 318° |
| 2026-05-05 12:01 | -20.39266 | -49.09467 | 34202 ft | 469 kts | 318° |
| 2026-05-05 12:01 | -20.33903 | -49.13467 | 34197 ft | 468 kts | 318° |
| 2026-05-05 12:02 | -20.28582 | -49.17433 | 34194 ft | 468 kts | 317° |
| 2026-05-05 12:02 | -20.23233 | -49.21417 | 34192 ft | 470 kts | 317° |
| 2026-05-05 12:03 | -20.17832 | -49.25436 | 34199 ft | 471 kts | 317° |
| 2026-05-05 12:03 | -20.12472 | -49.29420 | 34203 ft | 470 kts | 317° |
| 2026-05-05 12:04 | -20.07105 | -49.33407 | 34201 ft | 472 kts | 317° |
| 2026-05-05 12:04 | -20.01696 | -49.37421 | 34198 ft | 470 kts | 317° |
| 2026-05-05 12:05 | -19.96333 | -49.41398 | 34202 ft | 472 kts | 317° |
| 2026-05-05 12:05 | -19.90924 | -49.45406 | 34200 ft | 471 kts | 317° |
| 2026-05-05 12:06 | -19.85554 | -49.49382 | 34192 ft | 471 kts | 317° |
| 2026-05-05 12:06 | -19.80136 | -49.53389 | 34188 ft | 474 kts | 317° |
| 2026-05-05 12:07 | -19.74742 | -49.57375 | 34183 ft | 473 kts | 317° |
| 2026-05-05 12:07 | -19.69305 | -49.61390 | 34173 ft | 473 kts | 317° |
| 2026-05-05 12:08 | -19.63876 | -49.65396 | 34181 ft | 475 kts | 318° |
| 2026-05-05 12:08 | -19.58456 | -49.69391 | 34187 ft | 473 kts | 318° |
| 2026-05-05 12:09 | -19.53030 | -49.73388 | 34195 ft | 474 kts | 318° |
| 2026-05-05 12:09 | -19.47624 | -49.77365 | 34196 ft | 475 kts | 318° |
| 2026-05-05 12:10 | -19.42190 | -49.81361 | 34193 ft | 475 kts | 317° |
| 2026-05-05 12:10 | -19.36775 | -49.85341 | 34204 ft | 475 kts | 318° |
| 2026-05-05 12:11 | -19.31330 | -49.89337 | 34204 ft | 474 kts | 317° |
| 2026-05-05 12:11 | -19.25923 | -49.93304 | 34203 ft | 475 kts | 318° |
| 2026-05-05 12:12 | -19.20489 | -49.97287 | 34207 ft | 475 kts | 318° |
| 2026-05-05 12:12 | -19.15018 | -50.01294 | 34209 ft | 477 kts | 318° |
| 2026-05-05 12:13 | -19.09561 | -50.05287 | 34208 ft | 478 kts | 318° |
| 2026-05-05 12:13 | -19.04109 | -50.09273 | 34209 ft | 476 kts | 318° |
| 2026-05-05 12:14 | -18.98652 | -50.13260 | 34205 ft | 477 kts | 318° |
| 2026-05-05 12:14 | -18.93185 | -50.17251 | 34199 ft | 476 kts | 318° |
| 2026-05-05 12:15 | -18.87746 | -50.21218 | 34186 ft | 475 kts | 318° |
| 2026-05-05 12:15 | -18.82277 | -50.25203 | 34187 ft | 474 kts | 317° |
| 2026-05-05 12:16 | -18.76848 | -50.29158 | 34182 ft | 474 kts | 318° |
| 2026-05-05 12:16 | -18.71428 | -50.33101 | 34184 ft | 476 kts | 318° |
| 2026-05-05 12:17 | -18.65949 | -50.37084 | 34181 ft | 475 kts | 318° |
| 2026-05-05 12:17 | -18.60511 | -50.41036 | 34180 ft | 476 kts | 318° |
| 2026-05-05 12:18 | -18.55066 | -50.44987 | 34176 ft | 474 kts | 318° |
| 2026-05-05 12:18 | -18.49581 | -50.48967 | 34175 ft | 476 kts | 318° |
| 2026-05-05 12:19 | -18.44119 | -50.52922 | 34180 ft | 475 kts | 318° |
| 2026-05-05 12:19 | -18.38666 | -50.56868 | 34187 ft | 474 kts | 318° |
| 2026-05-05 12:20 | -18.33211 | -50.60813 | 34198 ft | 474 kts | 318° |
| 2026-05-05 12:20 | -18.27768 | -50.64746 | 34208 ft | 475 kts | 318° |
| 2026-05-05 12:21 | -18.22330 | -50.68671 | 34226 ft | 475 kts | 319° |
| 2026-05-05 12:21 | -18.16879 | -50.72604 | 34224 ft | 474 kts | 319° |
| 2026-05-05 12:22 | -18.11430 | -50.76532 | 34221 ft | 474 kts | 319° |
| 2026-05-05 12:22 | -18.05989 | -50.80451 | 34213 ft | 474 kts | 319° |
| 2026-05-05 12:23 | -18.00547 | -50.84367 | 34220 ft | 474 kts | 319° |
| 2026-05-05 12:23 | -17.95061 | -50.88313 | 34230 ft | 474 kts | 319° |
| 2026-05-05 12:24 | -17.89621 | -50.92222 | 34222 ft | 474 kts | 319° |
| 2026-05-05 12:24 | -17.84171 | -50.96135 | 34207 ft | 473 kts | 319° |
| 2026-05-05 12:25 | -17.78748 | -51.00025 | 34211 ft | 473 kts | 319° |
| 2026-05-05 12:25 | -17.73294 | -51.03934 | 34214 ft | 474 kts | 319° |
| 2026-05-05 12:26 | -17.67823 | -51.07853 | 34215 ft | 474 kts | 319° |
| 2026-05-05 12:26 | -17.62375 | -51.11752 | 34219 ft | 474 kts | 319° |
| 2026-05-05 12:27 | -17.56903 | -51.15665 | 34220 ft | 473 kts | 319° |
| 2026-05-05 12:27 | -17.51485 | -51.19537 | 34223 ft | 473 kts | 319° |
| 2026-05-05 12:28 | -17.46021 | -51.23439 | 34225 ft | 473 kts | 319° |
| 2026-05-05 12:28 | -17.40564 | -51.27334 | 34224 ft | 474 kts | 319° |
| 2026-05-05 12:29 | -17.35093 | -51.31238 | 34226 ft | 475 kts | 319° |
| 2026-05-05 12:29 | -17.29636 | -51.35132 | 34228 ft | 474 kts | 319° |
| 2026-05-05 12:30 | -17.24190 | -51.39016 | 34231 ft | 474 kts | 319° |
| 2026-05-05 12:30 | -17.18716 | -51.42918 | 34225 ft | 474 kts | 319° |
| 2026-05-05 12:31 | -17.13256 | -51.46807 | 34220 ft | 474 kts | 319° |
| 2026-05-05 12:31 | -17.07821 | -51.50674 | 34211 ft | 473 kts | 320° |
| 2026-05-05 12:32 | -17.02339 | -51.54574 | 34206 ft | 475 kts | 320° |
| 2026-05-05 12:32 | -16.96900 | -51.58438 | 34200 ft | 475 kts | 320° |
| 2026-05-05 12:33 | -16.91400 | -51.62344 | 34202 ft | 474 kts | 320° |
| 2026-05-05 12:33 | -16.85928 | -51.66228 | 34194 ft | 476 kts | 320° |
| 2026-05-05 12:34 | -16.80439 | -51.70119 | 34194 ft | 474 kts | 320° |
| 2026-05-05 12:34 | -16.74973 | -51.73989 | 34188 ft | 474 kts | 320° |
| 2026-05-05 12:35 | -16.69516 | -51.77850 | 34187 ft | 474 kts | 320° |
| 2026-05-05 12:35 | -16.64043 | -51.81719 | 34181 ft | 473 kts | 320° |
| 2026-05-05 12:36 | -16.58553 | -51.85598 | 34181 ft | 473 kts | 320° |
| 2026-05-05 12:36 | -16.53119 | -51.89434 | 34182 ft | 473 kts | 320° |
| 2026-05-05 12:37 | -16.47646 | -51.93297 | 34176 ft | 474 kts | 320° |
| 2026-05-05 12:37 | -16.42169 | -51.97158 | 34167 ft | 474 kts | 321° |
| 2026-05-05 12:38 | -16.37605 | -52.00374 | 34165 ft | 474 kts | 321° |
| 2026-05-05 12:38 | -16.31204 | -52.04881 | 34155 ft | 476 kts | 321° |
| 2026-05-05 12:39 | -16.25656 | -52.08673 | 34153 ft | 474 kts | 322° |
| 2026-05-05 12:39 | -16.20130 | -52.12402 | 34147 ft | 475 kts | 322° |
| 2026-05-05 12:40 | -16.14581 | -52.16144 | 34147 ft | 475 kts | 322° |
| 2026-05-05 12:40 | -16.09034 | -52.19883 | 34143 ft | 474 kts | 322° |
| 2026-05-05 12:41 | -16.03487 | -52.23620 | 34136 ft | 474 kts | 322° |
| 2026-05-05 12:41 | -15.97920 | -52.27367 | 34130 ft | 475 kts | 322° |
| 2026-05-05 12:42 | -15.92395 | -52.31084 | 34132 ft | 474 kts | 322° |
| 2026-05-05 12:42 | -15.86828 | -52.34826 | 34126 ft | 475 kts | 322° |
| 2026-05-05 12:43 | -15.81257 | -52.38569 | 34133 ft | 475 kts | 322° |
| 2026-05-05 12:43 | -15.75712 | -52.42291 | 34139 ft | 475 kts | 322° |
| 2026-05-05 12:44 | -15.70168 | -52.46010 | 34148 ft | 473 kts | 322° |
| 2026-05-05 12:44 | -15.64617 | -52.49732 | 34151 ft | 474 kts | 322° |
| 2026-05-05 12:45 | -15.59033 | -52.53474 | 34150 ft | 474 kts | 322° |
| 2026-05-05 12:45 | -15.53480 | -52.57192 | 34150 ft | 473 kts | 322° |
| 2026-05-05 12:46 | -15.47918 | -52.60914 | 34141 ft | 473 kts | 323° |
| 2026-05-05 12:46 | -15.42396 | -52.64606 | 34139 ft | 473 kts | 323° |
| 2026-05-05 12:47 | -15.36810 | -52.68339 | 34145 ft | 474 kts | 323° |
| 2026-05-05 12:47 | -15.31257 | -52.72048 | 34142 ft | 473 kts | 323° |
| 2026-05-05 12:48 | -15.25714 | -52.75747 | 34141 ft | 474 kts | 323° |
| 2026-05-05 12:48 | -15.20149 | -52.79459 | 34139 ft | 474 kts | 323° |
| 2026-05-05 12:49 | -15.14584 | -52.83168 | 34139 ft | 473 kts | 323° |
| 2026-05-05 12:49 | -15.09065 | -52.86845 | 34142 ft | 473 kts | 323° |
| 2026-05-05 12:50 | -15.03526 | -52.90533 | 34140 ft | 472 kts | 323° |
| 2026-05-05 12:50 | -14.97973 | -52.94226 | 34146 ft | 473 kts | 323° |
| 2026-05-05 12:51 | -14.92440 | -52.97906 | 34149 ft | 473 kts | 323° |
| 2026-05-05 12:51 | -14.86909 | -53.01581 | 34143 ft | 472 kts | 323° |
| 2026-05-05 12:52 | -14.81368 | -53.05260 | 34133 ft | 471 kts | 323° |
| 2026-05-05 12:52 | -14.75814 | -53.08947 | 34132 ft | 472 kts | 324° |
| 2026-05-05 12:53 | -14.70282 | -53.12575 | 34135 ft | 475 kts | 327° |
| 2026-05-05 12:53 | -14.64485 | -53.15928 | 34141 ft | 474 kts | 327° |
| 2026-05-05 12:54 | -14.55871 | -53.20957 | 34138 ft | 471 kts | 327° |
| 2026-05-05 12:55 | -14.50165 | -53.24288 | 34138 ft | 472 kts | 327° |
| 2026-05-05 12:55 | -14.44471 | -53.27609 | 34141 ft | 471 kts | 327° |
| 2026-05-05 12:56 | -14.38732 | -53.30955 | 34135 ft | 471 kts | 327° |
| 2026-05-05 12:56 | -14.33018 | -53.34285 | 34130 ft | 470 kts | 328° |
| 2026-05-05 12:57 | -14.27295 | -53.37617 | 34124 ft | 470 kts | 328° |
| 2026-05-05 12:57 | -14.21587 | -53.40938 | 34121 ft | 470 kts | 328° |
| 2026-05-05 12:58 | -14.15897 | -53.44247 | 34115 ft | 469 kts | 328° |
| 2026-05-05 12:58 | -14.10196 | -53.47561 | 34109 ft | 469 kts | 328° |
| 2026-05-05 12:59 | -14.04480 | -53.50882 | 34102 ft | 469 kts | 328° |
| 2026-05-05 12:59 | -13.98787 | -53.54187 | 34108 ft | 469 kts | 328° |
| 2026-05-05 13:00 | -13.90214 | -53.59163 | 34105 ft | 470 kts | 328° |
| 2026-05-05 13:01 | -13.78820 | -53.65773 | 34104 ft | 470 kts | 328° |
| 2026-05-05 13:01 | -13.73089 | -53.69095 | 34106 ft | 469 kts | 328° |
| 2026-05-05 13:02 | -13.67388 | -53.72397 | 34103 ft | 469 kts | 329° |
| 2026-05-05 13:02 | -13.61702 | -53.75689 | 34101 ft | 470 kts | 329° |
| 2026-05-05 13:03 | -13.55964 | -53.79009 | 34100 ft | 470 kts | 329° |
| 2026-05-05 13:03 | -13.50274 | -53.82300 | 34099 ft | 471 kts | 328° |
| 2026-05-05 13:04 | -13.44532 | -53.85619 | 34098 ft | 471 kts | 329° |
| 2026-05-05 13:04 | -13.38838 | -53.88908 | 34098 ft | 470 kts | 329° |
| 2026-05-05 13:05 | -13.33118 | -53.92211 | 34099 ft | 470 kts | 329° |
| 2026-05-05 13:05 | -13.27426 | -53.95496 | 34095 ft | 469 kts | 329° |
| 2026-05-05 13:06 | -13.21692 | -53.98802 | 34095 ft | 471 kts | 329° |
| 2026-05-05 13:06 | -13.15968 | -54.02101 | 34095 ft | 472 kts | 329° |
| 2026-05-05 13:07 | -13.10226 | -54.05410 | 34093 ft | 471 kts | 329° |
| 2026-05-05 13:07 | -13.04488 | -54.08714 | 34093 ft | 472 kts | 329° |
| 2026-05-05 13:08 | -12.98773 | -54.12003 | 34092 ft | 472 kts | 329° |
| 2026-05-05 13:08 | -12.93026 | -54.15307 | 34094 ft | 471 kts | 329° |
| 2026-05-05 13:09 | -12.87276 | -54.18610 | 34089 ft | 470 kts | 329° |
| 2026-05-05 13:09 | -12.81589 | -54.21875 | 34087 ft | 470 kts | 329° |
| 2026-05-05 13:10 | -12.75857 | -54.25163 | 34087 ft | 472 kts | 329° |
| 2026-05-05 13:10 | -12.70098 | -54.28466 | 34089 ft | 472 kts | 329° |
| 2026-05-05 13:11 | -12.64368 | -54.31750 | 34085 ft | 472 kts | 329° |
| 2026-05-05 13:11 | -12.58604 | -54.35054 | 34085 ft | 471 kts | 329° |
| 2026-05-05 13:12 | -12.52867 | -54.38340 | 34080 ft | 472 kts | 329° |
| 2026-05-05 13:12 | -12.47135 | -54.41621 | 34080 ft | 471 kts | 329° |
| 2026-05-05 13:13 | -12.41427 | -54.44887 | 34080 ft | 471 kts | 329° |
| 2026-05-05 13:13 | -12.35673 | -54.48178 | 34078 ft | 471 kts | 329° |
| 2026-05-05 13:14 | -12.29972 | -54.51436 | 34080 ft | 471 kts | 329° |
| 2026-05-05 13:14 | -12.24209 | -54.54729 | 34077 ft | 472 kts | 329° |
| 2026-05-05 13:15 | -12.18496 | -54.57991 | 34075 ft | 471 kts | 329° |
| 2026-05-05 13:15 | -12.12738 | -54.61278 | 34079 ft | 471 kts | 329° |
| 2026-05-05 13:16 | -12.07017 | -54.64542 | 34084 ft | 471 kts | 329° |
| 2026-05-05 13:16 | -12.01273 | -54.67817 | 34089 ft | 471 kts | 330° |
| 2026-05-05 13:17 | -11.95530 | -54.71091 | 34092 ft | 471 kts | 330° |
| 2026-05-05 13:17 | -11.89801 | -54.74355 | 34099 ft | 471 kts | 330° |
| 2026-05-05 13:18 | -11.84075 | -54.77615 | 34105 ft | 471 kts | 330° |
| 2026-05-05 13:18 | -11.78364 | -54.80866 | 34096 ft | 471 kts | 330° |
| 2026-05-05 13:19 | -11.72603 | -54.84143 | 34085 ft | 471 kts | 330° |
| 2026-05-05 13:19 | -11.66872 | -54.87401 | 34080 ft | 471 kts | 330° |
| 2026-05-05 13:20 | -11.61167 | -54.90643 | 34077 ft | 471 kts | 330° |
| 2026-05-05 13:20 | -11.55386 | -54.93927 | 34079 ft | 474 kts | 330° |
| 2026-05-05 13:21 | -11.52506 | -54.95563 | 34254 ft | 475 kts | 330° |
| 2026-05-05 13:21 | -11.49609 | -54.97207 | 34563 ft | 474 kts | 330° |
| 2026-05-05 13:21 | -11.46743 | -54.98833 | 34937 ft | 472 kts | 329° |
| 2026-05-05 13:21 | -11.43864 | -55.00467 | 35326 ft | 469 kts | 329° |
| 2026-05-05 13:22 | -11.41046 | -55.02066 | 35663 ft | 468 kts | 329° |
| 2026-05-05 13:22 | -11.38165 | -55.03700 | 35959 ft | 467 kts | 329° |
| 2026-05-05 13:22 | -11.32509 | -55.06907 | 36061 ft | 467 kts | 329° |
| 2026-05-05 13:23 | -11.26822 | -55.10130 | 36063 ft | 467 kts | 329° |
| 2026-05-05 13:23 | -11.21119 | -55.13361 | 36066 ft | 466 kts | 329° |
| 2026-05-05 13:24 | -11.15418 | -55.16588 | 36076 ft | 466 kts | 329° |
| 2026-05-05 13:24 | -11.09768 | -55.19786 | 36084 ft | 466 kts | 329° |
| 2026-05-05 13:25 | -11.04048 | -55.23021 | 36084 ft | 466 kts | 329° |
| 2026-05-05 13:25 | -10.98398 | -55.26214 | 36086 ft | 466 kts | 329° |
| 2026-05-05 13:26 | -10.92721 | -55.29421 | 36084 ft | 466 kts | 329° |
| 2026-05-05 13:26 | -10.87003 | -55.32650 | 36078 ft | 467 kts | 329° |
| 2026-05-05 13:27 | -10.81323 | -55.35856 | 36078 ft | 466 kts | 329° |
| 2026-05-05 13:27 | -10.75656 | -55.39053 | 36073 ft | 466 kts | 329° |
| 2026-05-05 13:28 | -10.69997 | -55.42244 | 36076 ft | 465 kts | 329° |
| 2026-05-05 13:28 | -10.64315 | -55.45447 | 36076 ft | 465 kts | 329° |
| 2026-05-05 13:29 | -10.58612 | -55.48660 | 36076 ft | 466 kts | 329° |
| 2026-05-05 13:29 | -10.52953 | -55.51846 | 36077 ft | 466 kts | 329° |
| 2026-05-05 13:30 | -10.47257 | -55.55053 | 36074 ft | 466 kts | 329° |
| 2026-05-05 13:30 | -10.41571 | -55.58253 | 36066 ft | 466 kts | 329° |
| 2026-05-05 13:31 | -10.35881 | -55.61453 | 36062 ft | 466 kts | 329° |
| 2026-05-05 13:31 | -10.30191 | -55.64652 | 36058 ft | 466 kts | 329° |
| 2026-05-05 13:32 | -10.24507 | -55.67847 | 36054 ft | 465 kts | 329° |
| 2026-05-05 13:32 | -10.18829 | -55.71036 | 36055 ft | 465 kts | 329° |
| 2026-05-05 13:33 | -10.13155 | -55.74223 | 36059 ft | 465 kts | 329° |
| 2026-05-05 13:33 | -10.07474 | -55.77412 | 36062 ft | 466 kts | 330° |
| 2026-05-05 13:34 | -10.01782 | -55.80607 | 36069 ft | 466 kts | 330° |
| 2026-05-05 13:34 | -9.96118 | -55.83784 | 36072 ft | 465 kts | 330° |
| 2026-05-05 13:35 | -9.90436 | -55.86970 | 36073 ft | 465 kts | 330° |
| 2026-05-05 13:35 | -9.84741 | -55.90163 | 36070 ft | 465 kts | 330° |
| 2026-05-05 13:36 | -9.79052 | -55.93351 | 36074 ft | 465 kts | 330° |
| 2026-05-05 13:36 | -9.73403 | -55.96514 | 36074 ft | 466 kts | 330° |
| 2026-05-05 13:37 | -9.67706 | -55.99689 | 36075 ft | 466 kts | 330° |
| 2026-05-05 13:37 | -9.61968 | -56.02816 | 36072 ft | 465 kts | 330° |
| 2026-05-05 13:38 | -9.56235 | -56.05941 | 36071 ft | 467 kts | 330° |
| 2026-05-05 13:38 | -9.50520 | -56.09057 | 36071 ft | 467 kts | 330° |
| 2026-05-05 13:39 | -9.44788 | -56.12180 | 36067 ft | 466 kts | 330° |
| 2026-05-05 13:39 | -9.39063 | -56.15298 | 36064 ft | 466 kts | 331° |
| 2026-05-05 13:40 | -9.33328 | -56.18420 | 36060 ft | 466 kts | 331° |
| 2026-05-05 13:40 | -9.27599 | -56.21538 | 36057 ft | 466 kts | 331° |
| 2026-05-05 13:41 | -9.21861 | -56.24661 | 36058 ft | 466 kts | 331° |
| 2026-05-05 13:41 | -9.16158 | -56.27762 | 36060 ft | 467 kts | 331° |
| 2026-05-05 13:42 | -9.10428 | -56.30877 | 36059 ft | 467 kts | 331° |
| 2026-05-05 13:42 | -9.04655 | -56.34014 | 36060 ft | 467 kts | 331° |
| 2026-05-05 13:43 | -8.98957 | -56.37110 | 36066 ft | 466 kts | 331° |
| 2026-05-05 13:43 | -8.93204 | -56.40235 | 36067 ft | 465 kts | 331° |
| 2026-05-05 13:44 | -8.87498 | -56.43332 | 36065 ft | 466 kts | 331° |
| 2026-05-05 13:44 | -8.81775 | -56.46437 | 36063 ft | 466 kts | 331° |
| 2026-05-05 13:45 | -8.76058 | -56.49539 | 36059 ft | 466 kts | 331° |
| 2026-05-05 13:45 | -8.70309 | -56.52656 | 36061 ft | 466 kts | 331° |
| 2026-05-05 13:46 | -8.64606 | -56.55748 | 36066 ft | 466 kts | 331° |
| 2026-05-05 13:46 | -8.58856 | -56.58864 | 36071 ft | 466 kts | 331° |
| 2026-05-05 13:47 | -8.53130 | -56.61966 | 36075 ft | 466 kts | 331° |
| 2026-05-05 13:47 | -8.47381 | -56.65080 | 36079 ft | 466 kts | 331° |
| 2026-05-05 13:48 | -8.41662 | -56.68176 | 36079 ft | 467 kts | 331° |
| 2026-05-05 13:48 | -8.35918 | -56.71284 | 36079 ft | 466 kts | 331° |
| 2026-05-05 13:49 | -8.30196 | -56.74379 | 36081 ft | 467 kts | 331° |
| 2026-05-05 13:49 | -8.24469 | -56.77477 | 36080 ft | 467 kts | 331° |
| 2026-05-05 13:50 | -8.18734 | -56.80577 | 36079 ft | 466 kts | 331° |
| 2026-05-05 13:50 | -8.12981 | -56.83686 | 36079 ft | 466 kts | 331° |
| 2026-05-05 13:51 | -8.07302 | -56.86826 | 36075 ft | 466 kts | 326° |
| 2026-05-05 13:51 | -8.02114 | -56.90804 | 36078 ft | 466 kts | 321° |
| 2026-05-05 13:52 | -7.96967 | -56.94848 | 36074 ft | 468 kts | 322° |
| 2026-05-05 13:52 | -7.91807 | -56.98898 | 36072 ft | 468 kts | 322° |
| 2026-05-05 13:53 | -7.86681 | -57.02920 | 36069 ft | 465 kts | 321° |
| 2026-05-05 13:53 | -7.81551 | -57.06945 | 36067 ft | 466 kts | 321° |
| 2026-05-05 13:54 | -7.77294 | -57.10283 | 36062 ft | 466 kts | 322° |
| 2026-05-05 13:54 | -7.71273 | -57.15003 | 36058 ft | 466 kts | 322° |
| 2026-05-05 13:55 | -7.66143 | -57.19023 | 36053 ft | 468 kts | 322° |
| 2026-05-05 13:55 | -7.60976 | -57.23071 | 36048 ft | 469 kts | 322° |
| 2026-05-05 13:56 | -7.55836 | -57.27096 | 36047 ft | 468 kts | 322° |
| 2026-05-05 13:56 | -7.50665 | -57.31145 | 36044 ft | 469 kts | 322° |
| 2026-05-05 13:57 | -7.45510 | -57.35180 | 36048 ft | 468 kts | 322° |
| 2026-05-05 13:57 | -7.40351 | -57.39216 | 36054 ft | 468 kts | 322° |
| 2026-05-05 13:58 | -7.35186 | -57.43256 | 36058 ft | 468 kts | 322° |
| 2026-05-05 13:58 | -7.30043 | -57.47278 | 36070 ft | 469 kts | 322° |
| 2026-05-05 13:59 | -7.22280 | -57.53345 | 36072 ft | 469 kts | 322° |
| 2026-05-05 14:00 | -7.15365 | -57.58748 | 36056 ft | 469 kts | 322° |
| 2026-05-05 14:00 | -7.09344 | -57.63451 | 36057 ft | 470 kts | 322° |
| 2026-05-05 14:01 | -7.04155 | -57.67503 | 36047 ft | 469 kts | 322° |
| 2026-05-05 14:01 | -6.99010 | -57.71519 | 36049 ft | 469 kts | 322° |
| 2026-05-05 14:02 | -6.93823 | -57.75566 | 36045 ft | 470 kts | 322° |
| 2026-05-05 14:02 | -6.88643 | -57.79607 | 36041 ft | 470 kts | 322° |
| 2026-05-05 14:03 | -6.83446 | -57.83660 | 36038 ft | 471 kts | 322° |
| 2026-05-05 14:03 | -6.78271 | -57.87696 | 36038 ft | 470 kts | 322° |
| 2026-05-05 14:04 | -6.73064 | -57.91755 | 36038 ft | 470 kts | 322° |
| 2026-05-05 14:04 | -6.67898 | -57.95780 | 36033 ft | 469 kts | 322° |
| 2026-05-05 14:05 | -6.62719 | -57.99815 | 36037 ft | 470 kts | 322° |
| 2026-05-05 14:05 | -6.57515 | -58.03868 | 36031 ft | 471 kts | 322° |
| 2026-05-05 14:06 | -6.52307 | -58.07923 | 36026 ft | 471 kts | 322° |
| 2026-05-05 14:06 | -6.47130 | -58.11952 | 36023 ft | 471 kts | 322° |
| 2026-05-05 14:07 | -6.41928 | -58.16001 | 36023 ft | 471 kts | 322° |
| 2026-05-05 14:07 | -6.36720 | -58.20052 | 36023 ft | 471 kts | 322° |
| 2026-05-05 14:08 | -6.31532 | -58.24088 | 36024 ft | 470 kts | 322° |
| 2026-05-05 14:08 | -6.26341 | -58.28124 | 36024 ft | 470 kts | 322° |
| 2026-05-05 14:09 | -6.21143 | -58.32164 | 36025 ft | 471 kts | 322° |
| 2026-05-05 14:09 | -6.15939 | -58.36209 | 36028 ft | 471 kts | 322° |
| 2026-05-05 14:10 | -6.10722 | -58.40263 | 36026 ft | 472 kts | 322° |
| 2026-05-05 14:10 | -6.05535 | -58.44292 | 36026 ft | 473 kts | 322° |
| 2026-05-05 14:11 | -6.00342 | -58.48325 | 36023 ft | 472 kts | 322° |
| 2026-05-05 14:11 | -5.95125 | -58.52375 | 36022 ft | 471 kts | 322° |
| 2026-05-05 14:12 | -5.89920 | -58.56415 | 36012 ft | 472 kts | 322° |
| 2026-05-05 14:12 | -5.84700 | -58.60466 | 36009 ft | 472 kts | 322° |
| 2026-05-05 14:13 | -5.79489 | -58.64509 | 36010 ft | 473 kts | 322° |
| 2026-05-05 14:13 | -5.74273 | -58.68555 | 36005 ft | 472 kts | 322° |
| 2026-05-05 14:14 | -5.69063 | -58.72595 | 36003 ft | 472 kts | 323° |
| 2026-05-05 14:14 | -5.63843 | -58.76643 | 36000 ft | 471 kts | 322° |
| 2026-05-05 14:15 | -5.58634 | -58.80680 | 36000 ft | 471 kts | 323° |
| 2026-05-05 14:15 | -5.53436 | -58.84708 | 36002 ft | 471 kts | 323° |
| 2026-05-05 14:16 | -5.48233 | -58.88739 | 36001 ft | 470 kts | 323° |
| 2026-05-05 14:16 | -5.42981 | -58.92807 | 36005 ft | 471 kts | 323° |
| 2026-05-05 14:17 | -5.37740 | -58.96865 | 36002 ft | 471 kts | 323° |
| 2026-05-05 14:17 | -5.32541 | -59.00891 | 36004 ft | 470 kts | 323° |
| 2026-05-05 14:18 | -5.27327 | -59.04926 | 36003 ft | 471 kts | 323° |
| 2026-05-05 14:18 | -5.22108 | -59.08965 | 36004 ft | 471 kts | 323° |
| 2026-05-05 14:19 | -5.16888 | -59.13004 | 36003 ft | 472 kts | 323° |
| 2026-05-05 14:19 | -5.11684 | -59.17029 | 36000 ft | 471 kts | 323° |
| 2026-05-05 14:20 | -5.06461 | -59.21069 | 36001 ft | 471 kts | 323° |
| 2026-05-05 14:20 | -5.01257 | -59.25093 | 36002 ft | 470 kts | 323° |
| 2026-05-05 14:21 | -4.96083 | -59.29093 | 36003 ft | 470 kts | 323° |
| 2026-05-05 14:21 | -4.93499 | -59.31090 | 35993 ft | 459 kts | 323° |
| 2026-05-05 14:21 | -4.90968 | -59.33047 | 35997 ft | 452 kts | 323° |
| 2026-05-05 14:22 | -4.86019 | -59.36871 | 35980 ft | 453 kts | 323° |
| 2026-05-05 14:22 | -4.83480 | -59.38833 | 35477 ft | 458 kts | 323° |
| 2026-05-05 14:22 | -4.80956 | -59.40783 | 34993 ft | 457 kts | 323° |
| 2026-05-05 14:23 | -4.78439 | -59.42727 | 34490 ft | 456 kts | 323° |
| 2026-05-05 14:23 | -4.75904 | -59.44685 | 33982 ft | 457 kts | 323° |
| 2026-05-05 14:23 | -4.73397 | -59.46621 | 33480 ft | 459 kts | 323° |
| 2026-05-05 14:23 | -4.70853 | -59.48586 | 32968 ft | 461 kts | 323° |
| 2026-05-05 14:24 | -4.68304 | -59.50554 | 32470 ft | 463 kts | 323° |
| 2026-05-05 14:24 | -4.65743 | -59.52531 | 31958 ft | 465 kts | 323° |
| 2026-05-05 14:24 | -4.63161 | -59.54525 | 31442 ft | 465 kts | 323° |
| 2026-05-05 14:24 | -4.60612 | -59.56492 | 30928 ft | 466 kts | 323° |
| 2026-05-05 14:25 | -4.58025 | -59.58490 | 30411 ft | 467 kts | 323° |
| 2026-05-05 14:25 | -4.55443 | -59.60482 | 29891 ft | 464 kts | 323° |
| 2026-05-05 14:25 | -4.52893 | -59.62451 | 29378 ft | 460 kts | 323° |
| 2026-05-05 14:25 | -4.50387 | -59.64384 | 28876 ft | 456 kts | 323° |
| 2026-05-05 14:26 | -4.47867 | -59.66330 | 28371 ft | 452 kts | 323° |
| 2026-05-05 14:26 | -4.45367 | -59.68258 | 27869 ft | 448 kts | 323° |
| 2026-05-05 14:26 | -4.42912 | -59.70152 | 27375 ft | 443 kts | 323° |
| 2026-05-05 14:26 | -4.40496 | -59.72016 | 26892 ft | 439 kts | 323° |
| 2026-05-05 14:27 | -4.38081 | -59.73879 | 26410 ft | 436 kts | 323° |
| 2026-05-05 14:27 | -4.35691 | -59.75722 | 25930 ft | 432 kts | 323° |
| 2026-05-05 14:27 | -4.33329 | -59.77544 | 25456 ft | 428 kts | 323° |
| 2026-05-05 14:27 | -4.30960 | -59.79371 | 24981 ft | 424 kts | 323° |
| 2026-05-05 14:28 | -4.28648 | -59.81153 | 24517 ft | 421 kts | 323° |
| 2026-05-05 14:28 | -4.26318 | -59.82950 | 24051 ft | 417 kts | 323° |
| 2026-05-05 14:28 | -4.24034 | -59.84712 | 23592 ft | 414 kts | 323° |
| 2026-05-05 14:28 | -4.21759 | -59.86465 | 23140 ft | 410 kts | 323° |
| 2026-05-05 14:29 | -4.19484 | -59.88218 | 22683 ft | 406 kts | 323° |
| 2026-05-05 14:29 | -4.17267 | -59.89928 | 22238 ft | 402 kts | 323° |
| 2026-05-05 14:29 | -4.15035 | -59.91648 | 21802 ft | 399 kts | 323° |
| 2026-05-05 14:29 | -4.12863 | -59.93322 | 21365 ft | 397 kts | 324° |
| 2026-05-05 14:30 | -4.10656 | -59.94980 | 20923 ft | 394 kts | 330° |
| 2026-05-05 14:30 | -4.08147 | -59.96033 | 20525 ft | 388 kts | 344° |
| 2026-05-05 14:30 | -4.05565 | -59.96829 | 20074 ft | 387 kts | 345° |
| 2026-05-05 14:30 | -4.02966 | -59.97614 | 19637 ft | 385 kts | 345° |
| 2026-05-05 14:31 | -4.00429 | -59.98376 | 19218 ft | 382 kts | 346° |
| 2026-05-05 14:31 | -3.97863 | -59.99146 | 18787 ft | 380 kts | 346° |
| 2026-05-05 14:31 | -3.95338 | -59.99902 | 18367 ft | 378 kts | 346° |
| 2026-05-05 14:31 | -3.92788 | -60.00666 | 17943 ft | 375 kts | 346° |
| 2026-05-05 14:32 | -3.90291 | -60.01413 | 17528 ft | 372 kts | 346° |
| 2026-05-05 14:32 | -3.87815 | -60.02155 | 17120 ft | 370 kts | 346° |
| 2026-05-05 14:32 | -3.85363 | -60.02889 | 16708 ft | 367 kts | 346° |
| 2026-05-05 14:32 | -3.82918 | -60.03621 | 16306 ft | 365 kts | 346° |
| 2026-05-05 14:33 | -3.80474 | -60.04353 | 15898 ft | 363 kts | 346° |
| 2026-05-05 14:33 | -3.78045 | -60.05080 | 15497 ft | 361 kts | 346° |
| 2026-05-05 14:33 | -3.75643 | -60.05798 | 15089 ft | 358 kts | 346° |
| 2026-05-05 14:33 | -3.73263 | -60.06511 | 14692 ft | 356 kts | 346° |
| 2026-05-05 14:34 | -3.70859 | -60.07230 | 14290 ft | 354 kts | 345° |
| 2026-05-05 14:34 | -3.68524 | -60.07929 | 13908 ft | 353 kts | 346° |
| 2026-05-05 14:34 | -3.66171 | -60.08633 | 13515 ft | 350 kts | 346° |
| 2026-05-05 14:34 | -3.63842 | -60.09330 | 13133 ft | 348 kts | 346° |
| 2026-05-05 14:35 | -3.61492 | -60.10034 | 12736 ft | 346 kts | 346° |
| 2026-05-05 14:35 | -3.59163 | -60.10730 | 12345 ft | 345 kts | 346° |
| 2026-05-05 14:35 | -3.56841 | -60.11425 | 11958 ft | 343 kts | 346° |
| 2026-05-05 14:35 | -3.54549 | -60.12111 | 11583 ft | 339 kts | 346° |
| 2026-05-05 14:36 | -3.52318 | -60.12779 | 11211 ft | 332 kts | 346° |
| 2026-05-05 14:36 | -3.50125 | -60.13435 | 10843 ft | 324 kts | 346° |
| 2026-05-05 14:36 | -3.47981 | -60.14076 | 10489 ft | 316 kts | 346° |
| 2026-05-05 14:36 | -3.45883 | -60.14704 | 10133 ft | 308 kts | 346° |
| 2026-05-05 14:37 | -3.43834 | -60.15316 | 9800 ft | 301 kts | 346° |
| 2026-05-05 14:37 | -3.41812 | -60.15921 | 9459 ft | 296 kts | 346° |
| 2026-05-05 14:37 | -3.39719 | -60.16547 | 9125 ft | 294 kts | 346° |
| 2026-05-05 14:37 | -3.37707 | -60.17147 | 8793 ft | 293 kts | 346° |
| 2026-05-05 14:38 | -3.35731 | -60.17738 | 8474 ft | 292 kts | 346° |
| 2026-05-05 14:38 | -3.33765 | -60.18326 | 8136 ft | 290 kts | 346° |
| 2026-05-05 14:38 | -3.31847 | -60.18900 | 7825 ft | 287 kts | 346° |
| 2026-05-05 14:38 | -3.29918 | -60.19477 | 7519 ft | 281 kts | 347° |
| 2026-05-05 14:39 | -3.27979 | -60.20057 | 7203 ft | 276 kts | 347° |
| 2026-05-05 14:39 | -3.26112 | -60.20615 | 6861 ft | 271 kts | 347° |
| 2026-05-05 14:39 | -3.24309 | -60.21116 | 6572 ft | 263 kts | 353° |
| 2026-05-05 14:39 | -3.22457 | -60.21434 | 6299 ft | 256 kts | 354° |
| 2026-05-05 14:40 | -3.20544 | -60.21753 | 5995 ft | 251 kts | 355° |
| 2026-05-05 14:40 | -3.18799 | -60.22044 | 5715 ft | 246 kts | 355° |
| 2026-05-05 14:40 | -3.17103 | -60.22327 | 5442 ft | 242 kts | 354° |
| 2026-05-05 14:40 | -3.15410 | -60.22609 | 5167 ft | 238 kts | 354° |
| 2026-05-05 14:41 | -3.13784 | -60.22850 | 4902 ft | 232 kts | 2° |
| 2026-05-05 14:41 | -3.12151 | -60.22862 | 4716 ft | 223 kts | 4° |
| 2026-05-05 14:41 | -3.10625 | -60.22860 | 4491 ft | 218 kts | 4° |
| 2026-05-05 14:41 | -3.09098 | -60.22857 | 4254 ft | 215 kts | 4° |
| 2026-05-05 14:42 | -3.07600 | -60.22854 | 4022 ft | 212 kts | 4° |
| 2026-05-05 14:42 | -3.06119 | -60.22850 | 3795 ft | 211 kts | 4° |
| 2026-05-05 14:42 | -3.04750 | -60.22506 | 3622 ft | 193 kts | 41° |
| 2026-05-05 14:42 | -3.04098 | -60.21394 | 3361 ft | 185 kts | 81° |
| 2026-05-05 14:43 | -3.03986 | -60.20130 | 3117 ft | 169 kts | 85° |
| 2026-05-05 14:43 | -3.03932 | -60.19002 | 2815 ft | 156 kts | 86° |
| 2026-05-05 14:43 | -3.03883 | -60.17965 | 2528 ft | 145 kts | 87° |
| 2026-05-05 14:43 | -3.03857 | -60.16947 | 2302 ft | 144 kts | 88° |
| 2026-05-05 14:44 | -3.03848 | -60.15923 | 2108 ft | 146 kts | 89° |
| 2026-05-05 14:44 | -3.03846 | -60.14896 | 1911 ft | 148 kts | 89° |
| 2026-05-05 14:44 | -3.03846 | -60.13885 | 1707 ft | 142 kts | 90° |
| 2026-05-05 14:44 | -3.03848 | -60.12903 | 1508 ft | 138 kts | 90° |
| 2026-05-05 14:45 | -3.03850 | -60.11944 | 1336 ft | 138 kts | 90° |
| 2026-05-05 14:45 | -3.03852 | -60.10985 | 1165 ft | 138 kts | 90° |
| 2026-05-05 14:45 | -3.03854 | -60.10020 | 990 ft | 138 kts | 91° |
| 2026-05-05 14:45 | -3.03855 | -60.09055 | 812 ft | 138 kts | 91° |
| 2026-05-05 14:46 | -3.03857 | -60.08078 | 632 ft | 140 kts | 91° |
| 2026-05-05 14:46 | -3.03859 | -60.07093 | 452 ft | 140 kts | 91° |
| 2026-05-05 14:46 | -3.03848 | -60.06119 | 248 ft | 141 kts | 91° |
| 2026-05-05 14:46 | -3.03859 | -60.05209 | 243 ft | 108 kts | 90° |
| 2026-05-05 14:47 | -3.03862 | -60.04611 | 243 ft | 68 kts | 89° |
| 2026-05-05 14:47 | -3.03860 | -60.04168 | 246 ft | 40 kts | 91° |
| 2026-05-05 14:47 | -3.03871 | -60.03913 | 247 ft | 32 kts | 80° |
| 2026-05-05 14:47 | -3.03830 | -60.03793 | 243 ft | 17 kts | 43° |
| 2026-05-05 14:48 | -3.03713 | -60.03808 | 238 ft | 20 kts | 307° |
| 2026-05-05 14:48 | -3.03658 | -60.03936 | 237 ft | 19 kts | 289° |
| 2026-05-05 14:48 | -3.03622 | -60.04071 | 238 ft | 20 kts | 284° |
| 2026-05-05 14:48 | -3.03581 | -60.04210 | 239 ft | 20 kts | 294° |
| 2026-05-05 14:49 | -3.03493 | -60.04327 | 239 ft | 21 kts | 324° |
| 2026-05-05 14:49 | -3.03384 | -60.04377 | 241 ft | 11 kts | 343° |
| 2026-05-05 14:49 | -3.03325 | -60.04416 | 242 ft | 9 kts | 273° |
| 2026-05-05 14:49 | -3.03343 | -60.04488 | 242 ft | 11 kts | 260° |
| 2026-05-05 14:50 | -3.03353 | -60.04554 | 240 ft | 5 kts | 264° |
| 2026-05-05 14:50 | -3.03341 | -60.04586 | 240 ft | 5 kts | 342° |
| 2026-05-05 14:50 | -3.03312 | -60.04581 | 241 ft | 2 kts | 7° |
| 2026-05-05 14:50 | -3.03299 | -60.04580 | 242 ft | 3 kts | 2° |
| 2026-05-05 14:51 | -3.03277 | -60.04581 | 243 ft | 0 kts | 359° |